Time;durP1;ratioP1;P1;durP2;ratioP2;P2;SDS_P1;SDS_P2;PMS_P1;PMS_P2;Temp;Humidity;BMP_temperature;BMP_pressure;BME280_temperature;BME280_humidity;BME280_pressure;Samples;Min_cycle;Max_cycle;Signal;HPM_P1;HPM_P2
2022/10/16 00:01:45;;;;;;;8.02;3.67;;;;;;;;;;5093204;28;20012;-57
2022/10/16 00:04:10;;;;;;;6.90;3.85;;;;;;;;;;5086018;28;20040;-57
2022/10/16 00:06:35;;;;;;;6.93;4.07;;;;;;;;;;5096570;28;20012;-57
2022/10/16 00:09:01;;;;;;;8.57;4.10;;;;;;;;;;5085936;28;20020;-57
2022/10/16 00:11:31;;;;;;;7.53;3.88;;;;;;;;;;5083889;28;20008;-57
2022/10/16 00:13:56;;;;;;;;;;;;;;;;;;5080083;28;20051;-57
2022/10/16 00:16:21;;;;;;;7.17;3.90;;;;;;;;;;5081913;28;19943;-57
2022/10/16 00:18:47;;;;;;;6.68;4.30;;;;;;;;;;5082226;28;20802;-58
2022/10/16 00:21:16;;;;;;;6.15;3.83;;;;;;;;;;5094681;28;20043;-57
2022/10/16 00:23:41;;;;;;;6.13;3.90;;;;;;;;;;5095718;28;20106;-57
2022/10/16 00:26:07;;;;;;;5.28;3.63;;;;;;;;;;5092494;28;20103;-57
2022/10/16 00:28:32;;;;;;;7.35;3.50;;;;;;;;;;5094379;28;20055;-57
2022/10/16 00:30:57;;;;;;;5.25;3.42;;;;;;;;;;5087652;28;20051;-57
2022/10/16 00:33:23;;;;;;;5.88;3.53;;;;;;;;;;5089389;28;20011;-57
2022/10/16 00:35:48;;;;;;;6.18;3.25;;;;;;;;;;5081796;28;20459;-56
2022/10/16 00:38:13;;;;;;;5.78;3.60;;;;;;;;;;5073950;28;20024;-57
2022/10/16 00:40:39;;;;;;;5.53;3.47;;;;;;;;;;5089854;28;20020;-57
2022/10/16 00:43:14;;;;;;;6.38;3.33;;;;;;;;;;5082928;28;20020;-57
2022/10/16 00:45:39;;;;;;;6.38;3.47;;;;;;;;;;5082148;28;20024;-57
2022/10/16 00:48:06;;;;;;;10.15;3.53;;;;;;;;;;5087616;28;20111;-57
2022/10/16 00:50:32;;;;;;;6.47;3.80;;;;;;;;;;5088618;28;20505;-57
2022/10/16 00:52:57;;;;;;;5.97;3.15;;;;;;;;;;5079149;28;20017;-57
2022/10/16 00:55:22;;;;;;;5.63;3.22;;;;;;;;;;5090454;28;20031;-57
2022/10/16 00:57:48;;;;;;;5.95;3.70;;;;;;;;;;5083064;28;20066;-58
2022/10/16 01:00:15;;;;;;;7.55;3.50;;;;;;;;;;5085222;28;20055;-57
2022/10/16 01:02:40;;;;;;;8.73;3.30;;;;;;;;;;5079108;28;20427;-56
2022/10/16 01:05:06;;;;;;;7.93;3.70;;;;;;;;;;5077185;28;20048;-57
2022/10/16 01:07:50;;;;;;;8.23;4.32;;;;;;;;;;5086093;28;20012;-57
2022/10/16 01:10:34;;;;;;;5.65;3.22;;;;;;;;;;5093885;28;20059;-58
2022/10/16 01:13:00;;;;;;;6.15;3.50;;;;;;;;;;5077251;28;20115;-57
2022/10/16 01:15:41;;;;;;;6.82;3.78;;;;;;;;;;5087264;28;20485;-57
2022/10/16 01:18:15;;;;;;;5.57;3.22;;;;;;;;;;5089564;28;20325;-57
2022/10/16 01:20:49;;;;;;;6.05;3.45;;;;;;;;;;5083555;28;20518;-57
2022/10/16 01:23:33;;;;;;;6.25;3.25;;;;;;;;;;5090169;28;20029;-58
2022/10/16 01:26:01;;;;;;;8.50;3.55;;;;;;;;;;5084520;28;20360;-57
2022/10/16 01:28:33;;;;;;;6.05;3.35;;;;;;;;;;5095614;28;20015;-57
2022/10/16 01:30:58;;;;;;;6.05;3.47;;;;;;;;;;5088536;28;20485;-57
2022/10/16 01:33:32;;;;;;;4.65;3.10;;;;;;;;;;5071751;28;20154;-57
2022/10/16 01:36:02;;;;;;;8.25;2.95;;;;;;;;;;5082352;28;20031;-57
2022/10/16 01:38:35;;;;;;;6.40;2.70;;;;;;;;;;5089980;28;20030;-57
2022/10/16 01:41:30;;;;;;;6.97;3.20;;;;;;;;;;5093559;28;20109;-57
2022/10/16 01:44:18;;;;;;;4.85;3.30;;;;;;;;;;5076333;28;20024;-56
2022/10/16 01:46:43;;;;;;;9.32;3.97;;;;;;;;;;5072632;28;20096;-57
2022/10/16 01:49:08;;;;;;;4.95;3.22;;;;;;;;;;5086220;28;20023;-58
2022/10/16 01:51:34;;;;;;;10.60;3.28;;;;;;;;;;5082766;28;20164;-57
2022/10/16 01:53:59;;;;;;;7.00;3.20;;;;;;;;;;5096702;28;20445;-57
2022/10/16 01:56:25;;;;;;;5.25;3.00;;;;;;;;;;5092448;28;20046;-57
2022/10/16 01:59:01;;;;;;;6.25;3.15;;;;;;;;;;5075291;28;20031;-57
2022/10/16 02:01:26;;;;;;;5.60;3.08;;;;;;;;;;5085682;28;20056;-57
2022/10/16 02:03:52;;;;;;;5.10;3.20;;;;;;;;;;5082605;28;20051;-57
2022/10/16 02:06:18;;;;;;;6.00;3.15;;;;;;;;;;5094913;28;20389;-57
2022/10/16 02:08:43;;;;;;;10.50;3.25;;;;;;;;;;5093830;28;20027;-57
2022/10/16 02:11:09;;;;;;;4.65;3.38;;;;;;;;;;5095638;28;20493;-57
2022/10/16 02:13:38;;;;;;;8.15;3.67;;;;;;;;;;5093878;28;20099;-57
2022/10/16 02:16:03;;;;;;;5.78;3.10;;;;;;;;;;5095890;28;20527;-57
2022/10/16 02:18:30;;;;;;;8.52;3.00;;;;;;;;;;5090757;28;20027;-57
2022/10/16 02:21:04;;;;;;;7.63;3.33;;;;;;;;;;5098196;28;20055;-56
2022/10/16 02:23:50;;;;;;;7.30;3.83;;;;;;;;;;5086960;28;20467;-58
2022/10/16 02:26:17;;;;;;;5.70;2.90;;;;;;;;;;5089307;28;20073;-58
2022/10/16 02:28:45;;;;;;;4.38;2.90;;;;;;;;;;5088348;28;20114;-57
2022/10/16 02:31:11;;;;;;;9.52;3.30;;;;;;;;;;5078042;28;20168;-58
2022/10/16 02:33:37;;;;;;;8.00;3.42;;;;;;;;;;5090642;28;20035;-58
2022/10/16 02:36:02;;;;;;;7.45;3.17;;;;;;;;;;5087503;28;20029;-58
2022/10/16 02:38:27;;;;;;;12.73;3.35;;;;;;;;;;5085065;28;20016;-58
2022/10/16 02:40:53;;;;;;;7.82;3.33;;;;;;;;;;5081345;28;20024;-57
2022/10/16 02:43:18;;;;;;;6.55;3.40;;;;;;;;;;5088513;28;20137;-58
2022/10/16 02:45:43;;;;;;;5.95;3.40;;;;;;;;;;5091345;28;20028;-58
2022/10/16 02:48:09;;;;;;;4.85;3.15;;;;;;;;;;5097747;28;20513;-57
2022/10/16 02:50:34;;;;;;;16.90;3.65;;;;;;;;;;5093125;28;20103;-57
2022/10/16 02:52:59;;;;;;;5.25;3.50;;;;;;;;;;5094532;28;20512;-57
2022/10/16 02:55:24;;;;;;;4.18;3.17;;;;;;;;;;5088714;28;20509;-58
2022/10/16 02:57:49;;;;;;;9.05;3.42;;;;;;;;;;5091698;28;20416;-58
2022/10/16 03:00:15;;;;;;;5.30;3.53;;;;;;;;;;5085736;28;20041;-58
2022/10/16 03:02:41;;;;;;;5.45;3.15;;;;;;;;;;5092701;28;20532;-58
2022/10/16 03:05:06;;;;;;;7.45;3.50;;;;;;;;;;5091055;28;20052;-58
2022/10/16 03:07:31;;;;;;;8.15;3.70;;;;;;;;;;5092283;28;20016;-58
2022/10/16 03:09:59;;;;;;;8.55;3.63;;;;;;;;;;5094907;28;20053;-56
2022/10/16 03:12:25;;;;;;;7.57;3.80;;;;;;;;;;5078625;28;20516;-58
2022/10/16 03:14:50;;;;;;;5.63;3.80;;;;;;;;;;5093132;28;20036;-58
2022/10/16 03:17:16;;;;;;;10.05;3.60;;;;;;;;;;5093861;27;20099;-58
2022/10/16 03:19:41;;;;;;;7.22;3.60;;;;;;;;;;5082578;28;20028;-59
2022/10/16 03:22:07;;;;;;;4.78;3.63;;;;;;;;;;5092919;28;20097;-56
2022/10/16 03:24:32;;;;;;;5.45;3.35;;;;;;;;;;5073030;28;20024;-58
2022/10/16 03:26:57;;;;;;;6.40;3.40;;;;;;;;;;5084038;28;20020;-58
2022/10/16 03:29:23;;;;;;;6.70;3.50;;;;;;;;;;5088086;28;20265;-58
2022/10/16 03:31:49;;;;;;;4.85;3.08;;;;;;;;;;5093556;28;20323;-56
2022/10/16 03:34:14;;;;;;;7.93;3.50;;;;;;;;;;5091058;28;20023;-57
2022/10/16 03:36:39;;;;;;;4.97;3.20;;;;;;;;;;5092288;28;20016;-57
2022/10/16 03:39:05;;;;;;;7.53;3.33;;;;;;;;;;5086334;28;20388;-56
2022/10/16 03:41:30;;;;;;;3.60;2.83;;;;;;;;;;5089963;28;20051;-56
2022/10/16 03:43:55;;;;;;;9.07;3.05;;;;;;;;;;5091922;28;20026;-56
2022/10/16 03:46:20;;;;;;;6.97;2.70;;;;;;;;;;5092427;28;20607;-57
2022/10/16 03:48:46;;;;;;;5.93;2.58;;;;;;;;;;5079057;28;20024;-56
2022/10/16 03:51:11;;;;;;;5.93;2.50;;;;;;;;;;5077731;28;20024;-56
2022/10/16 03:53:36;;;;;;;5.97;2.20;;;;;;;;;;5088144;28;20052;-58
2022/10/16 03:56:01;;;;;;;3.80;2.30;;;;;;;;;;5091172;28;20344;-56
2022/10/16 03:58:26;;;;;;;3.30;2.00;;;;;;;;;;5082096;28;20066;-56
2022/10/16 04:00:52;;;;;;;5.60;2.33;;;;;;;;;;5091368;28;20027;-57
2022/10/16 04:03:18;;;;;;;3.65;2.20;;;;;;;;;;5090295;28;20162;-56
2022/10/16 04:05:44;;;;;;;5.53;2.00;;;;;;;;;;5097384;28;20153;-57
2022/10/16 04:08:09;;;;;;;3.42;1.80;;;;;;;;;;5086445;28;20134;-57
2022/10/16 04:10:34;;;;;;;5.22;1.95;;;;;;;;;;5095554;28;20653;-57
2022/10/16 04:12:59;;;;;;;6.18;2.00;;;;;;;;;;5088511;28;20020;-57
2022/10/16 04:15:25;;;;;;;3.53;1.95;;;;;;;;;;5082969;28;20482;-57
2022/10/16 04:17:50;;;;;;;2.63;1.95;;;;;;;;;;5083331;28;20373;-57
2022/10/16 04:20:15;;;;;;;3.70;1.80;;;;;;;;;;5094696;28;20103;-57
2022/10/16 04:22:40;;;;;;;7.63;2.00;;;;;;;;;;5091666;28;20382;-57
2022/10/16 04:25:06;;;;;;;5.30;1.98;;;;;;;;;;5088558;28;20028;-56
2022/10/16 04:27:31;;;;;;;3.83;1.88;;;;;;;;;;5088257;28;20012;-57
2022/10/16 04:29:57;;;;;;;4.65;1.90;;;;;;;;;;5091018;28;20024;-57
2022/10/16 04:32:22;;;;;;;2.55;1.80;;;;;;;;;;5074567;28;20924;-57
2022/10/16 04:34:47;;;;;;;4.43;1.80;;;;;;;;;;5077270;28;20514;-57
2022/10/16 04:37:12;;;;;;;2.92;1.80;;;;;;;;;;5079496;28;20093;-57
2022/10/16 04:39:38;;;;;;;2.58;1.60;;;;;;;;;;5094095;28;20031;-57
2022/10/16 04:42:03;;;;;;;8.40;1.70;;;;;;;;;;5084368;28;20016;-57
2022/10/16 04:44:28;;;;;;;2.63;1.50;;;;;;;;;;5088014;28;20030;-57
2022/10/16 04:46:53;;;;;;;4.53;2.95;;;;;;;;;;5091878;28;20508;-57
2022/10/16 04:49:19;;;;;;;7.70;1.70;;;;;;;;;;5092026;28;20387;-57
2022/10/16 04:51:44;;;;;;;2.70;1.80;;;;;;;;;;5090102;28;20078;-57
2022/10/16 04:54:09;;;;;;;4.13;1.70;;;;;;;;;;5084988;28;20031;-57
2022/10/16 04:56:42;;;;;;;2.22;1.50;;;;;;;;;;5081919;28;20105;-57
2022/10/16 04:59:07;;;;;;;9.10;1.85;;;;;;;;;;5084584;28;20032;-57
2022/10/16 05:01:33;;;;;;;3.65;1.80;;;;;;;;;;5085262;28;20074;-57
2022/10/16 05:03:58;;;;;;;6.47;1.77;;;;;;;;;;5088035;28;20470;-57
2022/10/16 05:06:23;;;;;;;2.00;1.50;;;;;;;;;;5092885;28;20070;-57
2022/10/16 05:08:48;;;;;;;3.97;1.80;;;;;;;;;;5087797;28;20500;-57
2022/10/16 05:11:13;;;;;;;3.00;1.60;;;;;;;;;;5084419;28;20729;-57
2022/10/16 05:13:39;;;;;;;3.80;1.50;;;;;;;;;;5091313;28;20011;-59
2022/10/16 05:16:04;;;;;;;2.22;1.50;;;;;;;;;;5091491;28;20028;-57
2022/10/16 05:18:29;;;;;;;2.42;1.50;;;;;;;;;;5084781;28;20028;-56
2022/10/16 05:20:55;;;;;;;2.13;1.40;;;;;;;;;;5090417;28;20019;-57
2022/10/16 05:23:20;;;;;;;2.55;1.50;;;;;;;;;;5094120;28;20027;-57
2022/10/16 05:25:51;;;;;;;2.33;1.52;;;;;;;;;;5091287;28;20062;-57
2022/10/16 05:28:17;;;;;;;5.85;2.50;;;;;;;;;;5087158;28;20481;-57
2022/10/16 05:30:42;;;;;;;5.53;2.13;;;;;;;;;;5086356;28;20053;-57
2022/10/16 05:33:07;;;;;;;6.13;2.00;;;;;;;;;;5090396;28;20024;-57
2022/10/16 05:35:32;;;;;;;5.25;1.90;;;;;;;;;;5089158;28;20077;-57
2022/10/16 05:37:57;;;;;;;4.25;1.60;;;;;;;;;;5078637;28;20021;-57
2022/10/16 05:40:23;;;;;;;4.00;1.70;;;;;;;;;;5088168;28;20070;-57
2022/10/16 05:42:48;;;;;;;4.15;1.70;;;;;;;;;;5089193;28;20085;-57
2022/10/16 05:45:13;;;;;;;4.28;1.70;;;;;;;;;;5081369;28;20051;-57
2022/10/16 05:47:39;;;;;;;8.27;1.70;;;;;;;;;;5087254;28;20055;-59
2022/10/16 05:50:04;;;;;;;3.72;1.70;;;;;;;;;;5094891;28;20031;-57
2022/10/16 05:52:29;;;;;;;2.83;1.77;;;;;;;;;;5086534;28;20413;-58
2022/10/16 05:54:54;;;;;;;2.30;1.70;;;;;;;;;;5086297;28;20047;-58
2022/10/16 05:57:20;;;;;;;3.53;1.80;;;;;;;;;;5078155;28;22091;-57
2022/10/16 05:59:45;;;;;;;2.60;1.67;;;;;;;;;;5082039;28;20465;-57
2022/10/16 06:02:13;;;;;;;2.40;1.73;;;;;;;;;;5084109;28;20501;-57
2022/10/16 06:04:39;;;;;;;7.60;1.98;;;;;;;;;;5079837;28;20063;-58
2022/10/16 06:07:04;;;;;;;3.00;1.70;;;;;;;;;;5080151;28;20024;-57
2022/10/16 06:09:29;;;;;;;1.88;1.38;;;;;;;;;;5084366;28;20123;-57
2022/10/16 06:11:55;;;;;;;3.80;1.50;;;;;;;;;;5080855;28;20487;-57
2022/10/16 06:14:20;;;;;;;5.35;1.50;;;;;;;;;;5083707;28;20039;-58
2022/10/16 06:16:45;;;;;;;4.05;1.80;;;;;;;;;;5080281;28;20024;-56
2022/10/16 06:19:10;;;;;;;4.30;1.75;;;;;;;;;;5084265;28;20211;-58
2022/10/16 06:21:36;;;;;;;3.42;1.73;;;;;;;;;;5087661;28;20024;-58
2022/10/16 06:24:01;;;;;;;2.63;1.70;;;;;;;;;;5088832;28;20024;-58
2022/10/16 06:26:27;;;;;;;3.17;1.50;;;;;;;;;;5088996;28;20027;-61
2022/10/16 06:28:56;;;;;;;2.15;1.60;;;;;;;;;;5088579;28;20052;-58
2022/10/16 06:31:22;;;;;;;3.25;1.50;;;;;;;;;;5081425;28;20321;-57
2022/10/16 06:33:50;;;;;;;5.22;2.03;;;;;;;;;;5080856;28;20021;-56
2022/10/16 06:36:15;;;;;;;4.28;2.05;;;;;;;;;;5083510;28;20108;-56
2022/10/16 06:38:41;;;;;;;4.45;1.65;;;;;;;;;;5088609;28;20462;-57
2022/10/16 06:41:06;;;;;;;3.97;1.65;;;;;;;;;;5087997;28;20017;-57
2022/10/16 06:43:32;;;;;;;3.92;2.30;;;;;;;;;;5078326;28;20139;-57
2022/10/16 06:45:57;;;;;;;2.40;1.60;;;;;;;;;;5077508;28;20096;-57
2022/10/16 06:48:22;;;;;;;3.20;1.77;;;;;;;;;;5081317;28;20082;-57
2022/10/16 06:50:57;;;;;;;2.42;1.70;;;;;;;;;;5081623;28;20654;-57
2022/10/16 06:53:23;;;;;;;5.07;1.50;;;;;;;;;;5094075;27;20448;-57
2022/10/16 06:55:48;;;;;;;7.82;1.75;;;;;;;;;;5086522;28;20119;-56
2022/10/16 06:58:13;;;;;;;4.50;1.60;;;;;;;;;;5079730;28;20398;-57
2022/10/16 07:00:39;;;;;;;4.97;1.85;;;;;;;;;;5077027;28;20086;-57
2022/10/16 07:03:04;;;;;;;3.42;1.90;;;;;;;;;;5080156;28;20638;-57
2022/10/16 07:05:29;;;;;;;2.60;1.77;;;;;;;;;;5081858;28;20048;-57
2022/10/16 07:07:54;;;;;;;8.45;1.83;;;;;;;;;;5078099;28;20016;-57
2022/10/16 07:10:23;;;;;;;3.88;1.80;;;;;;;;;;5081467;28;20062;-57
2022/10/16 07:12:49;;;;;;;4.22;1.70;;;;;;;;;;5077118;28;20115;-57
2022/10/16 07:15:14;;;;;;;1.70;1.60;;;;;;;;;;5086421;28;20146;-58
2022/10/16 07:17:39;;;;;;;3.45;1.60;;;;;;;;;;5080017;28;20059;-59
2022/10/16 07:20:04;;;;;;;3.65;1.90;;;;;;;;;;5085786;28;20036;-56
2022/10/16 07:22:30;;;;;;;4.03;1.80;;;;;;;;;;5081524;28;20077;-57
2022/10/16 07:24:55;;;;;;;4.18;1.88;;;;;;;;;;5074695;28;20085;-58
2022/10/16 07:27:23;;;;;;;6.93;2.05;;;;;;;;;;5077997;28;20213;-58
2022/10/16 07:29:49;;;;;;;3.75;1.90;;;;;;;;;;5079749;28;20256;-57
2022/10/16 07:32:14;;;;;;;2.28;1.60;;;;;;;;;;5080164;28;20497;-57
2022/10/16 07:34:39;;;;;;;3.35;1.60;;;;;;;;;;5077576;28;20060;-57
2022/10/16 07:37:04;;;;;;;7.53;1.70;;;;;;;;;;5081823;28;20035;-57
2022/10/16 07:39:30;;;;;;;3.35;1.77;;;;;;;;;;5077792;28;20021;-57
2022/10/16 07:41:55;;;;;;;4.55;1.90;;;;;;;;;;5079406;28;20021;-57
2022/10/16 07:44:20;;;;;;;3.95;1.80;;;;;;;;;;5082291;28;20023;-57
2022/10/16 07:46:45;;;;;;;3.08;1.80;;;;;;;;;;5087018;28;20031;-57
2022/10/16 07:49:11;;;;;;;3.53;1.90;;;;;;;;;;5089978;28;20495;-57
2022/10/16 07:51:38;;;;;;;4.07;1.90;;;;;;;;;;5079436;28;20047;-57
2022/10/16 07:54:03;;;;;;;6.15;1.80;;;;;;;;;;5081501;28;20707;-57
2022/10/16 07:56:29;;;;;;;3.03;1.77;;;;;;;;;;5081918;28;20024;-57
2022/10/16 07:58:56;;;;;;;3.95;1.65;;;;;;;;;;5069364;28;20020;-57
2022/10/16 08:01:21;;;;;;;2.92;1.80;;;;;;;;;;5074293;28;20028;-58
2022/10/16 08:03:47;;;;;;;5.20;1.80;;;;;;;;;;5086492;28;20016;-58
2022/10/16 08:06:12;;;;;;;4.72;1.98;;;;;;;;;;5083574;28;20478;-58
2022/10/16 08:08:37;;;;;;;4.22;1.80;;;;;;;;;;5084400;28;20047;-56
2022/10/16 08:11:03;;;;;;;2.88;1.83;;;;;;;;;;5079807;28;20024;-59
2022/10/16 08:13:29;;;;;;;3.92;1.60;;;;;;;;;;5089646;28;20038;-57
2022/10/16 08:15:55;;;;;;;4.60;1.52;;;;;;;;;;5085767;28;20028;-57
2022/10/16 08:18:20;;;;;;;4.00;1.70;;;;;;;;;;5089375;28;20104;-57
2022/10/16 08:20:45;;;;;;;3.38;1.75;;;;;;;;;;5093018;28;20057;-57
2022/10/16 08:23:11;;;;;;;3.72;1.60;;;;;;;;;;5085565;28;20020;-57
2022/10/16 08:25:36;;;;;;;5.05;1.63;;;;;;;;;;5095052;28;20049;-57
2022/10/16 08:28:03;;;;;;;4.35;1.67;;;;;;;;;;5090741;28;20849;-57
2022/10/16 08:30:28;;;;;;;4.13;1.60;;;;;;;;;;5097379;28;20034;-57
2022/10/16 08:32:53;;;;;;;4.68;1.70;;;;;;;;;;5090358;28;20024;-57
2022/10/16 08:35:19;;;;;;;4.75;1.60;;;;;;;;;;5094588;28;20473;-57
2022/10/16 08:37:44;;;;;;;4.82;1.70;;;;;;;;;;5093286;28;20444;-57
2022/10/16 08:40:15;;;;;;;5.18;1.73;;;;;;;;;;5087424;28;20073;-57
2022/10/16 08:42:40;;;;;;;3.40;1.67;;;;;;;;;;5090825;28;20115;-57
2022/10/16 08:45:12;;;;;;;6.78;1.80;;;;;;;;;;5080189;28;20119;-57
2022/10/16 08:48:01;;;;;;;3.58;1.52;;;;;;;;;;5083246;28;20024;-57
2022/10/16 08:50:27;;;;;;;3.40;1.75;;;;;;;;;;5073822;28;20029;-59
2022/10/16 08:52:53;;;;;;;3.28;1.50;;;;;;;;;;5085029;28;20139;-57
2022/10/16 08:55:37;;;;;;;3.20;1.52;;;;;;;;;;5085137;28;20459;-57
2022/10/16 08:58:05;;;;;;;5.28;1.73;;;;;;;;;;5093117;28;20024;-58
2022/10/16 09:00:30;;;;;;;2.25;1.63;;;;;;;;;;5088185;28;20680;-59
2022/10/16 09:03:07;;;;;;;2.53;1.45;;;;;;;;;;5090629;28;20143;-58
2022/10/16 09:05:38;;;;;;;1.85;1.38;;;;;;;;;;5090519;28;20050;-58
2022/10/16 09:08:13;;;;;;;5.70;1.50;;;;;;;;;;5090914;28;20081;-57
2022/10/16 09:10:45;;;;;;;6.00;1.63;;;;;;;;;;5084769;28;20101;-58
2022/10/16 09:13:18;;;;;;;4.53;1.40;;;;;;;;;;5089896;28;20058;-57
2022/10/16 09:15:43;;;;;;;2.83;1.30;;;;;;;;;;5072611;28;20119;-57
2022/10/16 09:18:33;;;;;;;4.43;1.50;;;;;;;;;;5085548;28;20112;-57
2022/10/16 09:21:06;;;;;;;8.02;1.65;;;;;;;;;;5085854;28;20472;-57
2022/10/16 09:23:33;;;;;;;2.38;1.27;;;;;;;;;;5086205;28;20028;-58
2022/10/16 09:25:58;;;;;;;3.40;1.55;;;;;;;;;;5090164;28;20019;-57
2022/10/16 09:28:24;;;;;;;4.18;1.40;;;;;;;;;;5091512;28;20550;-57
2022/10/16 09:30:49;;;;;;;2.67;1.55;;;;;;;;;;5084110;28;20061;-57
2022/10/16 09:33:14;;;;;;;4.22;1.80;;;;;;;;;;5086617;28;20097;-57
2022/10/16 09:35:43;;;;;;;4.75;1.40;;;;;;;;;;5093560;28;20066;-57
2022/10/16 09:38:09;;;;;;;2.08;1.50;;;;;;;;;;5094688;28;20032;-57
2022/10/16 09:40:37;;;;;;;4.57;1.50;;;;;;;;;;5093234;28;20469;-56
2022/10/16 09:43:03;;;;;;;3.67;1.70;;;;;;;;;;5092181;28;20391;-58
2022/10/16 09:45:28;;;;;;;3.72;1.50;;;;;;;;;;5090621;28;20027;-57
2022/10/16 09:47:53;;;;;;;2.40;1.33;;;;;;;;;;5077663;28;20056;-57
2022/10/16 09:50:20;;;;;;;3.13;1.35;;;;;;;;;;5084320;28;20015;-56
2022/10/16 09:52:45;;;;;;;7.45;1.88;;;;;;;;;;5078281;28;20019;-58
2022/10/16 09:55:14;;;;;;;2.22;1.50;;;;;;;;;;5091343;28;20498;-57
2022/10/16 09:57:49;;;;;;;3.30;1.40;;;;;;;;;;5088707;28;20039;-56
2022/10/16 10:00:18;;;;;;;2.42;1.40;;;;;;;;;;5093148;28;20552;-58
2022/10/16 10:02:43;;;;;;;2.30;1.30;;;;;;;;;;5091917;28;20032;-57
2022/10/16 10:05:25;;;;;;;4.40;1.50;;;;;;;;;;5079488;28;20040;-56
2022/10/16 10:08:00;;;;;;;2.83;1.50;;;;;;;;;;5085873;28;20022;-57
2022/10/16 10:10:26;;;;;;;4.32;1.70;;;;;;;;;;5095921;28;20043;-56
2022/10/16 10:12:51;;;;;;;4.28;1.50;;;;;;;;;;5082657;28;20024;-57
2022/10/16 10:15:21;;;;;;;4.05;1.70;;;;;;;;;;5072068;28;20709;-57
2022/10/16 10:17:50;;;;;;;4.53;1.45;;;;;;;;;;5089628;28;20028;-57
2022/10/16 10:20:21;;;;;;;10.88;1.50;;;;;;;;;;5085016;28;20084;-57
2022/10/16 10:22:46;;;;;;;2.85;1.50;;;;;;;;;;5086489;28;20420;-57
2022/10/16 10:25:12;;;;;;;4.40;1.45;;;;;;;;;;5086868;28;20319;-56
2022/10/16 10:27:40;;;;;;;8.68;1.55;;;;;;;;;;5082902;28;20031;-56
2022/10/16 10:30:08;;;;;;;1.70;1.20;;;;;;;;;;5103111;28;20024;-57
2022/10/16 10:33:09;;;;;;;3.55;1.20;;;;;;;;;;5096807;28;20119;-58
2022/10/16 10:35:40;;;;;;;4.80;1.10;;;;;;;;;;5036855;28;20479;-57
2022/10/16 10:38:24;;;;;;;1.95;1.40;;;;;;;;;;5081116;28;20024;-58
2022/10/16 10:40:53;;;;;;;2.25;1.33;;;;;;;;;;5090166;28;20431;-57
2022/10/16 10:43:19;;;;;;;;;;;;;;;;;;5084395;28;20112;-58
2022/10/16 10:45:47;;;;;;;2.78;1.50;;;;;;;;;;5092243;28;19920;-57
2022/10/16 10:48:12;;;;;;;1.30;1.20;;;;;;;;;;5098987;28;20027;-58
2022/10/16 10:51:13;;;;;;;2.35;1.40;;;;;;;;;;5077966;28;20059;-58
2022/10/16 10:53:47;;;;;;;3.40;1.40;;;;;;;;;;5005664;28;20740;-58
2022/10/16 10:56:21;;;;;;;2.78;1.52;;;;;;;;;;5067780;28;20124;-56
2022/10/16 10:58:46;;;;;;;4.93;1.35;;;;;;;;;;5091919;28;20024;-58
2022/10/16 11:01:13;;;;;;;2.65;1.40;;;;;;;;;;5087143;28;20026;-58
2022/10/16 11:03:47;;;;;;;1.65;1.38;;;;;;;;;;5090427;28;20085;-58
2022/10/16 11:06:32;;;;;;;2.72;1.40;;;;;;;;;;5081794;28;20611;-58
2022/10/16 11:09:14;;;;;;;3.80;1.60;;;;;;;;;;5093785;28;20069;-57
2022/10/16 11:11:44;;;;;;;1.80;1.42;;;;;;;;;;5097624;28;20059;-60
2022/10/16 11:14:15;;;;;;;2.25;1.40;;;;;;;;;;5088029;28;20039;-58
2022/10/16 11:16:49;;;;;;;4.53;1.20;;;;;;;;;;5089530;28;20080;-57
2022/10/16 11:19:33;;;;;;;1.85;1.50;;;;;;;;;;5092412;28;20044;-57
2022/10/16 11:22:02;;;;;;;5.00;1.60;;;;;;;;;;5092860;28;20466;-58
2022/10/16 11:24:40;;;;;;;4.55;1.10;;;;;;;;;;5091586;28;20465;-57
2022/10/16 11:27:07;;;;;;;3.03;1.70;;;;;;;;;;5093388;28;20429;-57
2022/10/16 11:29:33;;;;;;;1.63;1.20;;;;;;;;;;5090002;28;20061;-57
2022/10/16 11:32:05;;;;;;;2.42;1.38;;;;;;;;;;5083421;28;20024;-58
2022/10/16 11:34:38;;;;;;;3.40;1.25;;;;;;;;;;5091463;28;20031;-56
2022/10/16 11:37:04;;;;;;;5.22;1.50;;;;;;;;;;5092109;28;20028;-56
2022/10/16 11:39:29;;;;;;;2.25;1.25;;;;;;;;;;5084466;28;20021;-56
2022/10/16 11:41:54;;;;;;;1.75;1.30;;;;;;;;;;5090996;28;20509;-56
2022/10/16 11:44:23;;;;;;;1.38;1.10;;;;;;;;;;5086489;28;20028;-55
2022/10/16 11:46:53;;;;;;;1.85;1.05;;;;;;;;;;5089587;28;20035;-56
2022/10/16 11:49:21;;;;;;;2.70;1.20;;;;;;;;;;5079362;28;20028;-58
2022/10/16 11:51:52;;;;;;;2.55;1.20;;;;;;;;;;5097097;28;20552;-57
2022/10/16 11:54:21;;;;;;;2.72;1.35;;;;;;;;;;5087083;28;20019;-56
2022/10/16 11:56:46;;;;;;;2.95;1.30;;;;;;;;;;5080480;28;20526;-57
2022/10/16 11:59:32;;;;;;;1.67;1.10;;;;;;;;;;5092017;28;20099;-57
2022/10/16 12:02:06;;;;;;;1.23;1.13;;;;;;;;;;5098153;28;20016;-57
2022/10/16 12:04:33;;;;;;;3.58;0.98;;;;;;;;;;5094101;28;20071;-56
2022/10/16 12:07:12;;;;;;;1.63;1.10;;;;;;;;;;5088890;28;20120;-57
2022/10/16 12:09:38;;;;;;;6.95;1.30;;;;;;;;;;5091642;28;20031;-56
2022/10/16 12:12:03;;;;;;;1.38;0.93;;;;;;;;;;5091512;28;20078;-57
2022/10/16 12:14:31;;;;;;;7.22;1.13;;;;;;;;;;5080970;28;20059;-55
2022/10/16 12:16:57;;;;;;;1.70;1.10;;;;;;;;;;5086618;28;20031;-57
2022/10/16 12:19:23;;;;;;;6.38;1.30;;;;;;;;;;5089913;28;20016;-56
2022/10/16 12:21:48;;;;;;;3.60;1.20;;;;;;;;;;5090668;28;20524;-57
2022/10/16 12:24:25;;;;;;;3.25;1.45;;;;;;;;;;5093656;28;20069;-57
2022/10/16 12:26:51;;;;;;;1.33;1.10;;;;;;;;;;5088577;28;20028;-59
2022/10/16 12:29:28;;;;;;;1.98;1.25;;;;;;;;;;5088330;28;20020;-57
2022/10/16 12:31:53;;;;;;;1.15;1.02;;;;;;;;;;5087228;28;20033;-56
2022/10/16 12:34:29;;;;;;;2.33;1.10;;;;;;;;;;5095969;28;20023;-57
2022/10/16 12:36:54;;;;;;;2.05;1.10;;;;;;;;;;5088631;28;20326;-58
2022/10/16 12:39:20;;;;;;;1.90;1.17;;;;;;;;;;5095007;28;20575;-57
2022/10/16 12:41:46;;;;;;;3.85;1.10;;;;;;;;;;5080969;28;20031;-57
2022/10/16 12:44:24;;;;;;;2.80;1.10;;;;;;;;;;5089342;28;20518;-57
2022/10/16 12:46:50;;;;;;;4.22;1.20;;;;;;;;;;5104186;27;20016;-57
2022/10/16 12:49:28;;;;;;;1.17;1.00;;;;;;;;;;5091654;28;20378;-57
2022/10/16 12:51:53;;;;;;;3.13;1.25;;;;;;;;;;5087564;28;20345;-57
2022/10/16 12:54:24;;;;;;;1.60;1.25;;;;;;;;;;5081834;28;20052;-57
2022/10/16 12:56:49;;;;;;;1.23;1.10;;;;;;;;;;5090902;28;20430;-57
2022/10/16 12:59:33;;;;;;;1.75;1.20;;;;;;;;;;5094370;28;20023;-58
2022/10/16 13:02:06;;;;;;;0.93;0.90;;;;;;;;;;5082791;28;20028;-56
2022/10/16 13:04:34;;;;;;;0.90;0.90;;;;;;;;;;5086938;28;20473;-56
2022/10/16 13:07:09;;;;;;;2.15;1.08;;;;;;;;;;5088411;28;20485;-56
2022/10/16 13:09:54;;;;;;;1.48;1.00;;;;;;;;;;5095638;28;20474;-58
2022/10/16 13:12:31;;;;;;;1.95;1.10;;;;;;;;;;5087129;28;20655;-57
2022/10/16 13:15:16;;;;;;;2.08;0.93;;;;;;;;;;5088053;28;20036;-56
2022/10/16 13:18:00;;;;;;;2.72;1.08;;;;;;;;;;5079714;28;20480;-56
2022/10/16 13:20:28;;;;;;;2.65;1.30;;;;;;;;;;5086657;28;20099;-58
2022/10/16 13:23:05;;;;;;;1.20;1.02;;;;;;;;;;5090592;28;20020;-57
2022/10/16 13:25:46;;;;;;;1.75;1.10;;;;;;;;;;5100240;28;20526;-57
2022/10/16 13:28:11;;;;;;;2.20;1.00;;;;;;;;;;5088037;28;20027;-56
2022/10/16 13:30:39;;;;;;;2.80;1.50;;;;;;;;;;5083514;28;20019;-57
2022/10/16 13:33:06;;;;;;;1.48;1.20;;;;;;;;;;5072984;28;20012;-57
2022/10/16 13:35:32;;;;;;;1.35;1.10;;;;;;;;;;5087837;28;20055;-56
2022/10/16 13:38:04;;;;;;;1.20;1.10;;;;;;;;;;5084418;28;20060;-56
2022/10/16 13:40:29;;;;;;;3.38;1.20;;;;;;;;;;5095292;28;20069;-55
2022/10/16 13:42:55;;;;;;;1.38;1.23;;;;;;;;;;5083841;28;20573;-57
2022/10/16 13:45:20;;;;;;;3.95;1.30;;;;;;;;;;5092135;28;20023;-56
2022/10/16 13:47:46;;;;;;;1.10;1.00;;;;;;;;;;5086839;28;20391;-56
2022/10/16 13:50:12;;;;;;;2.70;1.40;;;;;;;;;;5086705;28;20381;-56
2022/10/16 13:52:41;;;;;;;1.20;1.10;;;;;;;;;;5084893;28;20089;-57
2022/10/16 13:55:12;;;;;;;1.30;1.10;;;;;;;;;;5088765;28;20051;-56
2022/10/16 13:57:37;;;;;;;1.15;1.02;;;;;;;;;;5080109;28;20167;-57
2022/10/16 14:00:03;;;;;;;1.75;1.27;;;;;;;;;;5093598;28;20489;-56
2022/10/16 14:02:28;;;;;;;2.15;1.65;;;;;;;;;;5087799;28;20016;-56
2022/10/16 14:04:53;;;;;;;1.40;1.30;;;;;;;;;;5094143;28;20044;-56
2022/10/16 14:07:29;;;;;;;7.07;1.30;;;;;;;;;;5089122;28;20047;-55
2022/10/16 14:09:54;;;;;;;3.17;1.40;;;;;;;;;;5078313;28;20034;-56
2022/10/16 14:12:19;;;;;;;2.33;1.33;;;;;;;;;;5090322;28;20020;-57
2022/10/16 14:14:45;;;;;;;2.03;1.50;;;;;;;;;;5087057;28;20040;-56
2022/10/16 14:17:14;;;;;;;1.73;1.40;;;;;;;;;;5091723;28;20100;-56
2022/10/16 14:19:39;;;;;;;2.22;1.50;;;;;;;;;;5083726;28;20027;-56
2022/10/16 14:22:11;;;;;;;1.80;1.35;;;;;;;;;;5097051;28;20020;-56
2022/10/16 14:24:36;;;;;;;2.60;1.48;;;;;;;;;;5064368;28;20036;-56
2022/10/16 14:27:01;;;;;;;2.80;1.50;;;;;;;;;;5080365;28;20016;-56
2022/10/16 14:29:27;;;;;;;2.58;1.70;;;;;;;;;;5088523;28;20085;-56
2022/10/16 14:31:56;;;;;;;1.75;1.60;;;;;;;;;;5085048;28;20031;-57
2022/10/16 14:34:32;;;;;;;4.03;1.65;;;;;;;;;;5091773;28;20118;-57
2022/10/16 14:36:57;;;;;;;2.30;1.70;;;;;;;;;;5093081;28;20055;-56
2022/10/16 14:39:23;;;;;;;5.13;1.73;;;;;;;;;;5090443;28;20020;-57
2022/10/16 14:41:49;;;;;;;3.05;1.95;;;;;;;;;;5085194;28;20016;-56
2022/10/16 14:44:14;;;;;;;3.40;2.30;;;;;;;;;;5086550;28;20478;-57
2022/10/16 14:46:40;;;;;;;3.50;2.20;;;;;;;;;;5073707;28;20073;-56
2022/10/16 14:49:08;;;;;;;5.57;2.30;;;;;;;;;;5088829;28;20256;-57